sensor_id;sensor_type;location;lat;lon;timestamp;pressure;altitude;pressure_sealevel;temperature;humidity
16461;BME280;8341;42.048;24.650;2022-07-06T00:01:45;97155.56;;;22.75;63.42
16461;BME280;8341;42.048;24.650;2022-07-06T00:04:12;97151.88;;;22.80;62.87
16461;BME280;8341;42.048;24.650;2022-07-06T00:06:39;97154.44;;;22.93;62.06
16461;BME280;8341;42.048;24.650;2022-07-06T00:09:06;97152.00;;;23.04;61.62
16461;BME280;8341;42.048;24.650;2022-07-06T00:11:33;97151.25;;;23.12;60.85
16461;BME280;8341;42.048;24.650;2022-07-06T00:14:00;97146.25;;;23.18;59.98
16461;BME280;8341;42.048;24.650;2022-07-06T00:16:27;97139.91;;;23.25;59.38
16461;BME280;8341;42.048;24.650;2022-07-06T00:18:55;97137.31;;;23.27;57.65
16461;BME280;8341;42.048;24.650;2022-07-06T00:21:22;97139.56;;;23.28;57.88
16461;BME280;8341;42.048;24.650;2022-07-06T00:23:49;97134.50;;;23.34;57.02
16461;BME280;8341;42.048;24.650;2022-07-06T00:26:17;97137.53;;;23.36;56.44
16461;BME280;8341;42.048;24.650;2022-07-06T00:28:44;97128.59;;;23.30;56.31
16461;BME280;8341;42.048;24.650;2022-07-06T00:31:10;97123.03;;;23.30;56.35
16461;BME280;8341;42.048;24.650;2022-07-06T00:33:37;97126.72;;;23.33;56.79
16461;BME280;8341;42.048;24.650;2022-07-06T00:36:06;97117.28;;;23.36;56.74
16461;BME280;8341;42.048;24.650;2022-07-06T00:38:32;97122.09;;;23.28;56.54
16461;BME280;8341;42.048;24.650;2022-07-06T00:40:59;97125.25;;;23.32;56.21
16461;BME280;8341;42.048;24.650;2022-07-06T00:43:26;97132.88;;;23.39;55.34
16461;BME280;8341;42.048;24.650;2022-07-06T00:45:53;97128.97;;;23.42;55.09
16461;BME280;8341;42.048;24.650;2022-07-06T00:48:20;97129.31;;;23.46;54.73
16461;BME280;8341;42.048;24.650;2022-07-06T00:50:46;97136.13;;;23.60;54.47
16461;BME280;8341;42.048;24.650;2022-07-06T00:53:15;97135.94;;;23.58;54.54
16461;BME280;8341;42.048;24.650;2022-07-06T00:55:42;97124.41;;;23.69;54.38
16461;BME280;8341;42.048;24.650;2022-07-06T00:58:09;97110.81;;;23.73;53.99
16461;BME280;8341;42.048;24.650;2022-07-06T01:00:36;97110.41;;;23.84;53.74
16461;BME280;8341;42.048;24.650;2022-07-06T01:03:03;97101.72;;;23.80;53.35
16461;BME280;8341;42.048;24.650;2022-07-06T01:05:30;97087.03;;;23.80;53.71
16461;BME280;8341;42.048;24.650;2022-07-06T01:07:57;97085.00;;;23.80;53.57
16461;BME280;8341;42.048;24.650;2022-07-06T01:10:27;97078.66;;;23.87;53.67
16461;BME280;8341;42.048;24.650;2022-07-06T01:12:54;97065.16;;;23.76;53.37
16461;BME280;8341;42.048;24.650;2022-07-06T01:15:24;97063.84;;;23.77;53.54
16461;BME280;8341;42.048;24.650;2022-07-06T01:17:51;97054.19;;;23.78;53.61
16461;BME280;8341;42.048;24.650;2022-07-06T01:20:21;97045.09;;;23.78;53.35
16461;BME280;8341;42.048;24.650;2022-07-06T01:22:50;97040.25;;;23.78;53.41
16461;BME280;8341;42.048;24.650;2022-07-06T01:25:17;97044.25;;;23.60;53.51
16461;BME280;8341;42.048;24.650;2022-07-06T01:27:44;97040.34;;;23.63;54.29
16461;BME280;8341;42.048;24.650;2022-07-06T01:30:13;97031.88;;;23.53;53.58
16461;BME280;8341;42.048;24.650;2022-07-06T01:32:40;97030.84;;;23.34;54.21
16461;BME280;8341;42.048;24.650;2022-07-06T01:35:10;97026.50;;;23.48;54.40
16461;BME280;8341;42.048;24.650;2022-07-06T01:37:38;97015.59;;;23.42;56.25
16461;BME280;8341;42.048;24.650;2022-07-06T01:40:07;97023.38;;;23.44;55.69
16461;BME280;8341;42.048;24.650;2022-07-06T01:42:34;97010.25;;;23.37;55.55
16461;BME280;8341;42.048;24.650;2022-07-06T01:45:01;97013.22;;;23.31;55.03
16461;BME280;8341;42.048;24.650;2022-07-06T01:47:28;97004.88;;;23.31;55.51
16461;BME280;8341;42.048;24.650;2022-07-06T01:49:58;96998.16;;;23.34;56.08
16461;BME280;8341;42.048;24.650;2022-07-06T01:52:25;96998.19;;;23.27;55.59
16461;BME280;8341;42.048;24.650;2022-07-06T01:54:54;96998.19;;;23.27;55.71
16461;BME280;8341;42.048;24.650;2022-07-06T01:57:21;97001.56;;;23.25;56.54
16461;BME280;8341;42.048;24.650;2022-07-06T01:59:48;96989.88;;;23.19;56.70
16461;BME280;8341;42.048;24.650;2022-07-06T02:02:15;96994.19;;;23.13;56.01
16461;BME280;8341;42.048;24.650;2022-07-06T02:04:42;96985.72;;;22.95;56.96
16461;BME280;8341;42.048;24.650;2022-07-06T02:07:09;96983.66;;;23.03;57.39
16461;BME280;8341;42.048;24.650;2022-07-06T02:09:36;96985.72;;;22.95;59.32
16461;BME280;8341;42.048;24.650;2022-07-06T02:12:05;96983.66;;;22.96;59.54
16461;BME280;8341;42.048;24.650;2022-07-06T02:14:32;96988.53;;;22.88;58.68
16461;BME280;8341;42.048;24.650;2022-07-06T02:16:58;96987.25;;;22.81;58.90
16461;BME280;8341;42.048;24.650;2022-07-06T02:19:25;96983.38;;;22.77;58.93
16461;BME280;8341;42.048;24.650;2022-07-06T02:21:52;96984.16;;;22.70;58.71
16461;BME280;8341;42.048;24.650;2022-07-06T02:24:19;96986.53;;;22.58;59.04
16461;BME280;8341;42.048;24.650;2022-07-06T02:26:46;96980.44;;;22.52;59.30
16461;BME280;8341;42.048;24.650;2022-07-06T02:29:14;96992.09;;;22.58;59.76
16461;BME280;8341;42.048;24.650;2022-07-06T02:31:41;96996.38;;;22.59;61.48
16461;BME280;8341;42.048;24.650;2022-07-06T02:34:07;96995.47;;;22.49;61.43
16461;BME280;8341;42.048;24.650;2022-07-06T02:36:34;96997.09;;;22.52;60.98
16461;BME280;8341;42.048;24.650;2022-07-06T02:39:01;96997.50;;;22.41;61.41
16461;BME280;8341;42.048;24.650;2022-07-06T02:41:28;97002.69;;;22.37;61.99
16461;BME280;8341;42.048;24.650;2022-07-06T02:43:54;97002.16;;;22.38;61.02
16461;BME280;8341;42.048;24.650;2022-07-06T02:46:23;97010.66;;;22.40;60.97
16461;BME280;8341;42.048;24.650;2022-07-06T02:48:49;97009.53;;;22.51;60.47
16461;BME280;8341;42.048;24.650;2022-07-06T02:51:16;97014.16;;;22.49;60.54
16461;BME280;8341;42.048;24.650;2022-07-06T02:53:43;97014.34;;;22.58;60.57
16461;BME280;8341;42.048;24.650;2022-07-06T02:56:10;97007.66;;;22.61;60.92
16461;BME280;8341;42.048;24.650;2022-07-06T02:58:36;97021.00;;;22.63;60.74
16461;BME280;8341;42.048;24.650;2022-07-06T03:01:03;97020.66;;;22.66;60.81
16461;BME280;8341;42.048;24.650;2022-07-06T03:03:32;97031.41;;;22.70;60.33
16461;BME280;8341;42.048;24.650;2022-07-06T03:05:59;97032.88;;;22.63;61.69
16461;BME280;8341;42.048;24.650;2022-07-06T03:08:26;97033.59;;;22.56;60.97
16461;BME280;8341;42.048;24.650;2022-07-06T03:10:53;97028.81;;;22.57;60.41
16461;BME280;8341;42.048;24.650;2022-07-06T03:13:20;97037.31;;;22.74;60.96
16461;BME280;8341;42.048;24.650;2022-07-06T03:15:46;97042.88;;;22.74;59.85
16461;BME280;8341;42.048;24.650;2022-07-06T03:18:13;97051.03;;;22.72;60.83
16461;BME280;8341;42.048;24.650;2022-07-06T03:20:41;97043.03;;;22.83;60.81
16461;BME280;8341;42.048;24.650;2022-07-06T03:23:08;97040.97;;;22.91;61.26
16461;BME280;8341;42.048;24.650;2022-07-06T03:25:35;97034.31;;;22.94;60.80
16461;BME280;8341;42.048;24.650;2022-07-06T03:28:02;97044.31;;;22.97;60.54
16461;BME280;8341;42.048;24.650;2022-07-06T03:30:29;97050.78;;;23.00;60.16
16461;BME280;8341;42.048;24.650;2022-07-06T03:32:55;97036.47;;;23.03;59.29
16461;BME280;8341;42.048;24.650;2022-07-06T03:35:22;97037.81;;;23.02;60.08
16461;BME280;8341;42.048;24.650;2022-07-06T03:37:50;97040.00;;;23.04;59.35
16461;BME280;8341;42.048;24.650;2022-07-06T03:40:17;97038.31;;;23.08;58.57
16461;BME280;8341;42.048;24.650;2022-07-06T03:42:44;97044.06;;;23.18;58.05
16461;BME280;8341;42.048;24.650;2022-07-06T03:45:11;97045.31;;;23.25;57.57
16461;BME280;8341;42.048;24.650;2022-07-06T03:47:38;97048.25;;;23.34;57.57
16461;BME280;8341;42.048;24.650;2022-07-06T03:50:06;97051.22;;;23.44;58.33
16461;BME280;8341;42.048;24.650;2022-07-06T03:52:33;97045.66;;;23.44;57.72
16461;BME280;8341;42.048;24.650;2022-07-06T03:55:02;97047.50;;;23.49;57.46
16461;BME280;8341;42.048;24.650;2022-07-06T03:57:29;97046.31;;;23.59;58.34
16461;BME280;8341;42.048;24.650;2022-07-06T03:59:56;97043.31;;;23.65;58.51
16461;BME280;8341;42.048;24.650;2022-07-06T04:02:23;97051.97;;;23.77;58.81
16461;BME280;8341;42.048;24.650;2022-07-06T04:04:49;97051.75;;;23.82;59.49
16461;BME280;8341;42.048;24.650;2022-07-06T04:07:16;97053.75;;;23.89;59.65
16461;BME280;8341;42.048;24.650;2022-07-06T04:09:43;97056.47;;;23.97;59.94
16461;BME280;8341;42.048;24.650;2022-07-06T04:12:12;97047.91;;;24.02;60.98
16461;BME280;8341;42.048;24.650;2022-07-06T04:14:38;97043.41;;;24.07;58.98
16461;BME280;8341;42.048;24.650;2022-07-06T04:17:05;97043.91;;;24.20;59.07
16461;BME280;8341;42.048;24.650;2022-07-06T04:19:46;97051.97;;;24.34;57.46
16461;BME280;8341;42.048;24.650;2022-07-06T04:22:13;97045.91;;;24.69;57.80
16461;BME280;8341;42.048;24.650;2022-07-06T04:24:39;97052.63;;;25.69;55.83
16461;BME280;8341;42.048;24.650;2022-07-06T04:27:06;97052.09;;;26.53;51.81
16461;BME280;8341;42.048;24.650;2022-07-06T04:29:34;97052.38;;;26.38;50.76
16461;BME280;8341;42.048;24.650;2022-07-06T04:32:02;97046.47;;;26.07;51.22
16461;BME280;8341;42.048;24.650;2022-07-06T04:34:29;97045.94;;;25.82;52.19
16461;BME280;8341;42.048;24.650;2022-07-06T04:36:56;97045.25;;;25.64;52.16
16461;BME280;8341;42.048;24.650;2022-07-06T04:39:22;97046.50;;;25.54;53.89
16461;BME280;8341;42.048;24.650;2022-07-06T04:41:49;97055.53;;;25.44;55.20
16461;BME280;8341;42.048;24.650;2022-07-06T04:44:16;97053.72;;;25.39;55.68
16461;BME280;8341;42.048;24.650;2022-07-06T04:46:44;97059.63;;;25.09;56.87
16461;BME280;8341;42.048;24.650;2022-07-06T04:49:11;97055.88;;;25.14;56.14
16461;BME280;8341;42.048;24.650;2022-07-06T04:51:38;97059.31;;;25.05;56.76
16461;BME280;8341;42.048;24.650;2022-07-06T04:54:04;97057.75;;;25.12;57.66
16461;BME280;8341;42.048;24.650;2022-07-06T04:56:31;97063.09;;;25.17;58.64
16461;BME280;8341;42.048;24.650;2022-07-06T04:58:58;97055.78;;;25.05;57.94
16461;BME280;8341;42.048;24.650;2022-07-06T05:01:25;97059.81;;;25.11;57.32
16461;BME280;8341;42.048;24.650;2022-07-06T05:03:53;97060.47;;;25.02;59.28
16461;BME280;8341;42.048;24.650;2022-07-06T05:06:20;97065.06;;;25.07;58.37
16461;BME280;8341;42.048;24.650;2022-07-06T05:08:47;97069.00;;;25.04;58.86
16461;BME280;8341;42.048;24.650;2022-07-06T05:11:13;97069.34;;;25.08;58.22
16461;BME280;8341;42.048;24.650;2022-07-06T05:13:40;97069.75;;;25.05;57.59
16461;BME280;8341;42.048;24.650;2022-07-06T05:16:08;97067.94;;;25.00;57.77
16461;BME280;8341;42.048;24.650;2022-07-06T05:18:34;97077.72;;;25.08;57.85
16461;BME280;8341;42.048;24.650;2022-07-06T05:21:03;97083.78;;;25.14;57.13
16461;BME280;8341;42.048;24.650;2022-07-06T05:23:29;97077.56;;;25.06;57.86
16461;BME280;8341;42.048;24.650;2022-07-06T05:25:56;97090.44;;;25.19;57.52
16461;BME280;8341;42.048;24.650;2022-07-06T05:28:23;97093.53;;;25.23;58.17
16461;BME280;8341;42.048;24.650;2022-07-06T05:30:50;97098.53;;;25.24;58.48
16461;BME280;8341;42.048;24.650;2022-07-06T05:33:16;97095.25;;;25.35;58.42
16461;BME280;8341;42.048;24.650;2022-07-06T05:35:43;97107.09;;;25.43;58.42
16461;BME280;8341;42.048;24.650;2022-07-06T05:38:11;97105.47;;;25.06;59.37
16461;BME280;8341;42.048;24.650;2022-07-06T05:40:38;97106.28;;;25.16;58.54
16461;BME280;8341;42.048;24.650;2022-07-06T05:43:05;97117.25;;;25.14;58.55
16461;BME280;8341;42.048;24.650;2022-07-06T05:45:32;97117.66;;;24.69;60.45
16461;BME280;8341;42.048;24.650;2022-07-06T05:47:59;97122.50;;;24.68;60.69
16461;BME280;8341;42.048;24.650;2022-07-06T05:50:43;97125.44;;;24.70;61.20
16461;BME280;8341;42.048;24.650;2022-07-06T05:53:09;97125.41;;;24.53;61.44
16461;BME280;8341;42.048;24.650;2022-07-06T05:55:38;97131.97;;;24.48;61.82
16461;BME280;8341;42.048;24.650;2022-07-06T05:58:05;97132.19;;;24.43;62.30
16461;BME280;8341;42.048;24.650;2022-07-06T06:00:32;97127.34;;;24.43;62.58
16461;BME280;8341;42.048;24.650;2022-07-06T06:02:59;97132.97;;;24.60;61.63
16461;BME280;8341;42.048;24.650;2022-07-06T06:05:26;97120.63;;;24.71;62.09
16461;BME280;8341;42.048;24.650;2022-07-06T06:07:53;97127.59;;;24.62;62.75
16461;BME280;8341;42.048;24.650;2022-07-06T06:10:20;97128.25;;;24.70;62.82
16461;BME280;8341;42.048;24.650;2022-07-06T06:12:50;97128.31;;;24.63;63.47
16461;BME280;8341;42.048;24.650;2022-07-06T06:15:17;97129.75;;;24.47;63.43
16461;BME280;8341;42.048;24.650;2022-07-06T06:17:44;97132.97;;;24.36;63.85
16461;BME280;8341;42.048;24.650;2022-07-06T06:20:13;97129.34;;;24.25;63.54
16461;BME280;8341;42.048;24.650;2022-07-06T06:22:47;97135.38;;;24.39;64.46
16461;BME280;8341;42.048;24.650;2022-07-06T06:25:14;97134.56;;;24.46;65.32
16461;BME280;8341;42.048;24.650;2022-07-06T06:27:41;97124.56;;;24.18;65.41
16461;BME280;8341;42.048;24.650;2022-07-06T06:30:11;97133.41;;;24.24;64.67
16461;BME280;8341;42.048;24.650;2022-07-06T06:32:38;97128.69;;;24.35;64.72
16461;BME280;8341;42.048;24.650;2022-07-06T06:35:06;97130.59;;;24.57;64.10
16461;BME280;8341;42.048;24.650;2022-07-06T06:37:33;97122.16;;;24.64;63.97
16461;BME280;8341;42.048;24.650;2022-07-06T06:40:00;97142.56;;;24.50;64.59
16461;BME280;8341;42.048;24.650;2022-07-06T06:42:27;97142.03;;;24.44;64.17
16461;BME280;8341;42.048;24.650;2022-07-06T06:44:54;97135.66;;;24.51;64.27
16461;BME280;8341;42.048;24.650;2022-07-06T06:47:22;97133.72;;;24.61;62.97
16461;BME280;8341;42.048;24.650;2022-07-06T06:49:49;97135.59;;;24.58;63.56
16461;BME280;8341;42.048;24.650;2022-07-06T06:52:16;97146.81;;;24.51;63.19
16461;BME280;8341;42.048;24.650;2022-07-06T06:54:43;97137.47;;;24.56;62.88
16461;BME280;8341;42.048;24.650;2022-07-06T06:57:09;97133.66;;;24.68;62.83
16461;BME280;8341;42.048;24.650;2022-07-06T06:59:36;97131.44;;;24.67;63.23
16461;BME280;8341;42.048;24.650;2022-07-06T07:02:03;97128.72;;;24.59;62.51
16461;BME280;8341;42.048;24.650;2022-07-06T07:04:31;97138.97;;;24.57;62.31
16461;BME280;8341;42.048;24.650;2022-07-06T07:06:58;97132.69;;;24.49;63.25
16461;BME280;8341;42.048;24.650;2022-07-06T07:09:25;97123.03;;;24.50;63.22
16461;BME280;8341;42.048;24.650;2022-07-06T07:11:52;97122.41;;;24.59;63.13
16461;BME280;8341;42.048;24.650;2022-07-06T07:14:18;97124.13;;;24.54;62.63
16461;BME280;8341;42.048;24.650;2022-07-06T07:16:45;97119.53;;;24.66;62.92
16461;BME280;8341;42.048;24.650;2022-07-06T07:19:12;97122.06;;;24.79;61.84
16461;BME280;8341;42.048;24.650;2022-07-06T07:21:40;97116.66;;;24.99;60.82
16461;BME280;8341;42.048;24.650;2022-07-06T07:24:07;97109.28;;;24.94;60.81
16461;BME280;8341;42.048;24.650;2022-07-06T07:26:34;97119.72;;;24.93;61.51
16461;BME280;8341;42.048;24.650;2022-07-06T07:29:01;97117.41;;;24.82;62.17
16461;BME280;8341;42.048;24.650;2022-07-06T07:31:28;97117.75;;;25.03;61.17
16461;BME280;8341;42.048;24.650;2022-07-06T07:33:54;97110.03;;;24.94;61.91
16461;BME280;8341;42.048;24.650;2022-07-06T07:36:22;97117.75;;;25.03;62.08
16461;BME280;8341;42.048;24.650;2022-07-06T07:38:51;97110.38;;;24.98;61.96
16461;BME280;8341;42.048;24.650;2022-07-06T07:41:18;97116.41;;;24.87;62.62
16461;BME280;8341;42.048;24.650;2022-07-06T07:43:45;97119.31;;;24.72;63.59
16461;BME280;8341;42.048;24.650;2022-07-06T07:46:12;97122.84;;;24.72;63.18
16461;BME280;8341;42.048;24.650;2022-07-06T07:48:38;97120.69;;;24.88;62.70
16461;BME280;8341;42.048;24.650;2022-07-06T07:51:05;97120.19;;;24.82;62.76
16461;BME280;8341;42.048;24.650;2022-07-06T07:53:32;97116.69;;;24.74;62.33
16461;BME280;8341;42.048;24.650;2022-07-06T07:56:01;97119.72;;;24.93;62.85
16461;BME280;8341;42.048;24.650;2022-07-06T07:58:28;97123.00;;;24.99;62.30
16461;BME280;8341;42.048;24.650;2022-07-06T08:00:55;97119.06;;;25.19;61.46
16461;BME280;8341;42.048;24.650;2022-07-06T08:03:22;97113.00;;;25.47;61.03
16461;BME280;8341;42.048;24.650;2022-07-06T08:05:49;97115.22;;;25.66;59.68
16461;BME280;8341;42.048;24.650;2022-07-06T08:08:16;97110.97;;;25.92;58.67
16461;BME280;8341;42.048;24.650;2022-07-06T08:10:43;97120.03;;;25.83;58.52
16461;BME280;8341;42.048;24.650;2022-07-06T08:13:11;97121.91;;;25.97;58.86
16461;BME280;8341;42.048;24.650;2022-07-06T08:15:40;97127.72;;;26.09;58.42
16461;BME280;8341;42.048;24.650;2022-07-06T08:18:06;97120.56;;;26.16;57.10
16461;BME280;8341;42.048;24.650;2022-07-06T08:20:34;97118.34;;;26.14;58.17
16461;BME280;8341;42.048;24.650;2022-07-06T08:23:01;97119.16;;;26.34;56.80
16461;BME280;8341;42.048;24.650;2022-07-06T08:25:28;97119.13;;;26.24;56.97
16461;BME280;8341;42.048;24.650;2022-07-06T08:27:55;97131.88;;;26.18;56.93
16461;BME280;8341;42.048;24.650;2022-07-06T08:30:23;97116.31;;;26.60;56.73
16461;BME280;8341;42.048;24.650;2022-07-06T08:32:50;97113.63;;;26.80;55.58
16461;BME280;8341;42.048;24.650;2022-07-06T08:35:17;97110.25;;;26.91;55.46
16461;BME280;8341;42.048;24.650;2022-07-06T08:37:44;97106.41;;;26.86;55.33
16461;BME280;8341;42.048;24.650;2022-07-06T08:40:11;97106.75;;;27.28;54.65
16461;BME280;8341;42.048;24.650;2022-07-06T08:42:37;97110.19;;;27.65;53.96
16461;BME280;8341;42.048;24.650;2022-07-06T08:45:06;97111.19;;;27.79;52.13
16461;BME280;8341;42.048;24.650;2022-07-06T08:47:36;97115.13;;;27.95;51.60
16461;BME280;8341;42.048;24.650;2022-07-06T08:50:04;97105.97;;;28.05;51.91
16461;BME280;8341;42.048;24.650;2022-07-06T08:52:32;97118.81;;;27.98;52.86
16461;BME280;8341;42.048;24.650;2022-07-06T08:54:59;97104.66;;;27.96;51.38
16461;BME280;8341;42.048;24.650;2022-07-06T08:57:26;97112.63;;;28.09;51.79
16461;BME280;8341;42.048;24.650;2022-07-06T08:59:53;97113.06;;;27.86;53.27
16461;BME280;8341;42.048;24.650;2022-07-06T09:02:24;97116.91;;;27.81;53.72
16461;BME280;8341;42.048;24.650;2022-07-06T09:04:54;97114.31;;;27.55;54.46
16461;BME280;8341;42.048;24.650;2022-07-06T09:07:21;97115.34;;;27.50;55.71
16461;BME280;8341;42.048;24.650;2022-07-06T09:09:49;97117.97;;;27.38;56.48
16461;BME280;8341;42.048;24.650;2022-07-06T09:12:16;97124.00;;;27.25;56.37
16461;BME280;8341;42.048;24.650;2022-07-06T09:14:43;97123.00;;;27.40;55.90
16461;BME280;8341;42.048;24.650;2022-07-06T09:17:11;97128.16;;;27.43;56.07
16461;BME280;8341;42.048;24.650;2022-07-06T09:19:39;97127.28;;;27.50;54.83
16461;BME280;8341;42.048;24.650;2022-07-06T09:22:07;97130.25;;;27.52;55.45
16461;BME280;8341;42.048;24.650;2022-07-06T09:24:39;97131.56;;;27.42;54.82
16461;BME280;8341;42.048;24.650;2022-07-06T09:27:15;97124.88;;;27.18;55.86
16461;BME280;8341;42.048;24.650;2022-07-06T09:29:42;97126.47;;;27.02;56.72
16461;BME280;8341;42.048;24.650;2022-07-06T09:32:08;97125.47;;;27.16;56.59
16461;BME280;8341;42.048;24.650;2022-07-06T09:34:42;97118.66;;;27.00;56.54
16461;BME280;8341;42.048;24.650;2022-07-06T09:37:11;97117.31;;;26.92;56.24
16461;BME280;8341;42.048;24.650;2022-07-06T09:39:38;97118.38;;;27.06;57.69
16461;BME280;8341;42.048;24.650;2022-07-06T09:42:07;97115.91;;;27.19;56.66
16461;BME280;8341;42.048;24.650;2022-07-06T09:44:36;97113.38;;;27.33;55.71
16461;BME280;8341;42.048;24.650;2022-07-06T09:47:05;97107.81;;;27.52;55.05
16461;BME280;8341;42.048;24.650;2022-07-06T09:49:33;97105.19;;;27.45;55.27
16461;BME280;8341;42.048;24.650;2022-07-06T09:52:02;97103.38;;;27.68;55.39
16461;BME280;8341;42.048;24.650;2022-07-06T09:54:32;97094.81;;;27.85;54.02
16461;BME280;8341;42.048;24.650;2022-07-06T09:56:59;97097.72;;;27.97;54.28
16461;BME280;8341;42.048;24.650;2022-07-06T09:59:27;97099.66;;;28.04;54.81
16461;BME280;8341;42.048;24.650;2022-07-06T10:01:55;97094.28;;;28.18;53.68
16461;BME280;8341;42.048;24.650;2022-07-06T10:04:23;97089.25;;;28.26;53.20
16461;BME280;8341;42.048;24.650;2022-07-06T10:06:50;97088.69;;;28.58;52.35
16461;BME280;8341;42.048;24.650;2022-07-06T10:09:18;97090.34;;;28.82;52.81
16461;BME280;8341;42.048;24.650;2022-07-06T10:11:50;97086.38;;;29.18;51.50
16461;BME280;8341;42.048;24.650;2022-07-06T10:14:19;97080.44;;;29.45;50.08
16461;BME280;8341;42.048;24.650;2022-07-06T10:16:47;97077.31;;;29.62;48.61
16461;BME280;8341;42.048;24.650;2022-07-06T10:19:15;97077.84;;;29.70;48.74
16461;BME280;8341;42.048;24.650;2022-07-06T10:21:44;97074.72;;;29.87;49.08
16461;BME280;8341;42.048;24.650;2022-07-06T10:24:12;97075.66;;;30.24;48.95
16461;BME280;8341;42.048;24.650;2022-07-06T10:26:40;97069.41;;;30.26;46.29
16461;BME280;8341;42.048;24.650;2022-07-06T10:29:08;97073.31;;;29.76;46.46
16461;BME280;8341;42.048;24.650;2022-07-06T10:31:38;97059.84;;;29.31;45.71
16461;BME280;8341;42.048;24.650;2022-07-06T10:34:09;97064.66;;;29.18;47.25
16461;BME280;8341;42.048;24.650;2022-07-06T10:36:38;97059.03;;;29.18;46.36
16461;BME280;8341;42.048;24.650;2022-07-06T10:39:05;97063.59;;;29.02;46.53
16461;BME280;8341;42.048;24.650;2022-07-06T10:41:52;97046.78;;;28.81;46.56
16461;BME280;8341;42.048;24.650;2022-07-06T10:44:21;97052.25;;;29.22;49.01
16461;BME280;8341;42.048;24.650;2022-07-06T10:46:52;97050.06;;;29.53;44.68
16461;BME280;8341;42.048;24.650;2022-07-06T10:49:20;97054.59;;;29.58;45.91
16461;BME280;8341;42.048;24.650;2022-07-06T10:51:47;97051.50;;;29.54;44.39
16461;BME280;8341;42.048;24.650;2022-07-06T10:54:17;97044.94;;;29.61;45.05
16461;BME280;8341;42.048;24.650;2022-07-06T10:56:45;97055.94;;;30.01;44.67
16461;BME280;8341;42.048;24.650;2022-07-06T10:59:13;97041.44;;;30.40;45.53
16461;BME280;8341;42.048;24.650;2022-07-06T11:02:11;97040.00;;;30.87;44.54
16461;BME280;8341;42.048;24.650;2022-07-06T11:04:38;97037.84;;;30.97;43.65
16461;BME280;8341;42.048;24.650;2022-07-06T11:07:07;97041.47;;;30.88;42.67
16461;BME280;8341;42.048;24.650;2022-07-06T11:09:36;97037.84;;;30.97;42.09
16461;BME280;8341;42.048;24.650;2022-07-06T11:12:13;97042.13;;;30.75;42.77
16461;BME280;8341;42.048;24.650;2022-07-06T11:14:42;97038.72;;;30.42;44.24
16461;BME280;8341;42.048;24.650;2022-07-06T11:17:11;97032.25;;;30.51;43.14
16461;BME280;8341;42.048;24.650;2022-07-06T11:19:48;97039.06;;;30.94;42.95
16461;BME280;8341;42.048;24.650;2022-07-06T11:22:15;97030.06;;;31.09;43.13
16461;BME280;8341;42.048;24.650;2022-07-06T11:24:44;97027.22;;;30.49;43.07
16461;BME280;8341;42.048;24.650;2022-07-06T11:27:11;97019.53;;;30.50;42.57
16461;BME280;8341;42.048;24.650;2022-07-06T11:29:38;97019.75;;;30.65;43.11
16461;BME280;8341;42.048;24.650;2022-07-06T11:32:07;97022.78;;;30.69;44.05
16461;BME280;8341;42.048;24.650;2022-07-06T11:34:38;97024.91;;;30.57;43.44
16461;BME280;8341;42.048;24.650;2022-07-06T11:37:07;97017.34;;;30.48;46.07
16461;BME280;8341;42.048;24.650;2022-07-06T11:39:36;97019.00;;;30.18;44.48
16461;BME280;8341;42.048;24.650;2022-07-06T11:42:05;97013.50;;;30.32;44.23
16461;BME280;8341;42.048;24.650;2022-07-06T11:44:33;97015.34;;;30.74;44.77
16461;BME280;8341;42.048;24.650;2022-07-06T11:47:00;97015.44;;;30.76;45.03
16461;BME280;8341;42.048;24.650;2022-07-06T11:49:29;97009.16;;;30.89;43.17
16461;BME280;8341;42.048;24.650;2022-07-06T11:51:58;97005.56;;;30.63;42.81
16461;BME280;8341;42.048;24.650;2022-07-06T11:54:25;97006.41;;;30.66;43.90
16461;BME280;8341;42.048;24.650;2022-07-06T11:56:54;97012.16;;;30.56;42.40
16461;BME280;8341;42.048;24.650;2022-07-06T11:59:23;97013.00;;;30.59;45.33
16461;BME280;8341;42.048;24.650;2022-07-06T12:01:58;97010.56;;;30.65;42.42
16461;BME280;8341;42.048;24.650;2022-07-06T12:04:25;97004.06;;;30.74;41.93
16461;BME280;8341;42.048;24.650;2022-07-06T12:06:52;96999.94;;;30.63;41.48
16461;BME280;8341;42.048;24.650;2022-07-06T12:09:20;96998.25;;;30.35;42.03
16461;BME280;8341;42.048;24.650;2022-07-06T12:11:47;96994.03;;;30.71;43.79
16461;BME280;8341;42.048;24.650;2022-07-06T12:14:16;96990.41;;;30.22;40.74
16461;BME280;8341;42.048;24.650;2022-07-06T12:16:45;96990.09;;;30.76;41.56
16461;BME280;8341;42.048;24.650;2022-07-06T12:19:12;96990.91;;;30.90;40.74
16461;BME280;8341;42.048;24.650;2022-07-06T12:21:44;96982.94;;;30.98;40.89
16461;BME280;8341;42.048;24.650;2022-07-06T12:24:18;96984.75;;;31.05;40.46
16461;BME280;8341;42.048;24.650;2022-07-06T12:26:48;96987.59;;;31.30;41.21
16461;BME280;8341;42.048;24.650;2022-07-06T12:29:15;96984.91;;;31.07;42.76
16461;BME280;8341;42.048;24.650;2022-07-06T12:31:48;96978.06;;;30.98;41.53
16461;BME280;8341;42.048;24.650;2022-07-06T12:34:16;96978.66;;;30.49;42.01
16461;BME280;8341;42.048;24.650;2022-07-06T12:36:45;96968.50;;;30.44;43.19
16461;BME280;8341;42.048;24.650;2022-07-06T12:39:13;96979.16;;;30.22;44.49
16461;BME280;8341;42.048;24.650;2022-07-06T12:41:45;96977.41;;;29.82;43.88
16461;BME280;8341;42.048;24.650;2022-07-06T12:44:14;96972.38;;;29.69;44.30
16461;BME280;8341;42.048;24.650;2022-07-06T12:46:42;96966.44;;;29.98;43.69
16461;BME280;8341;42.048;24.650;2022-07-06T12:49:15;96960.94;;;30.11;43.45
16461;BME280;8341;42.048;24.650;2022-07-06T12:51:56;96968.13;;;30.49;43.54
16461;BME280;8341;42.048;24.650;2022-07-06T12:54:24;96962.63;;;30.88;43.27
16461;BME280;8341;42.048;24.650;2022-07-06T12:57:08;96968.97;;;31.00;43.45
16461;BME280;8341;42.048;24.650;2022-07-06T12:59:41;96964.88;;;31.40;41.78
16461;BME280;8341;42.048;24.650;2022-07-06T13:02:09;96964.78;;;31.38;42.92
16461;BME280;8341;42.048;24.650;2022-07-06T13:04:37;96961.06;;;30.96;40.72